sensor_id;sensor_type;location;lat;lon;timestamp;pressure;altitude;pressure_sealevel;temperature;humidity
70015;BME280;57358;51.094;6.760;2022-09-27T00:01:22;99048.25;;;9.69;100.00
70015;BME280;57358;51.094;6.760;2022-09-27T00:03:52;99076.63;;;9.75;100.00
70015;BME280;57358;51.094;6.760;2022-09-27T00:06:26;99079.44;;;9.72;100.00
70015;BME280;57358;51.094;6.760;2022-09-27T00:08:53;99079.44;;;9.72;100.00
70015;BME280;57358;51.094;6.760;2022-09-27T00:11:33;99076.09;;;9.70;100.00
70015;BME280;57358;51.094;6.760;2022-09-27T00:14:01;99081.59;;;9.67;100.00
70015;BME280;57358;51.094;6.760;2022-09-27T00:16:31;99084.31;;;9.65;100.00
70015;BME280;57358;51.094;6.760;2022-09-27T00:19:03;99105.28;;;9.65;100.00
70015;BME280;57358;51.094;6.760;2022-09-27T00:21:31;99104.34;;;9.66;100.00
70015;BME280;57358;51.094;6.760;2022-09-27T00:23:58;99103.25;;;9.69;100.00
70015;BME280;57358;51.094;6.760;2022-09-27T00:26:25;99099.09;;;9.66;100.00
70015;BME280;57358;51.094;6.760;2022-09-27T00:28:51;99078.81;;;9.57;100.00
70015;BME280;57358;51.094;6.760;2022-09-27T00:31:21;99075.38;;;9.56;100.00
70015;BME280;57358;51.094;6.760;2022-09-27T00:33:49;99098.97;;;9.68;100.00
70015;BME280;57358;51.094;6.760;2022-09-27T00:36:17;99050.19;;;9.43;100.00
70015;BME280;57358;51.094;6.760;2022-09-27T00:38:44;99088.13;;;9.61;100.00
70015;BME280;57358;51.094;6.760;2022-09-27T00:41:19;99099.69;;;9.70;100.00
70015;BME280;57358;51.094;6.760;2022-09-27T00:43:50;99105.78;;;9.70;100.00
70015;BME280;57358;51.094;6.760;2022-09-27T00:46:30;98994.56;;;9.04;100.00
70015;BME280;57358;51.094;6.760;2022-09-27T00:49:16;98997.91;;;9.06;100.00
70015;BME280;57358;51.094;6.760;2022-09-27T00:51:47;99028.59;;;9.28;100.00
70015;BME280;57358;51.094;6.760;2022-09-27T00:54:16;99101.25;;;9.72;100.00
70015;BME280;57358;51.094;6.760;2022-09-27T00:56:45;99046.25;;;9.37;100.00
70015;BME280;57358;51.094;6.760;2022-09-27T00:59:24;99064.31;;;9.40;100.00
70015;BME280;57358;51.094;6.760;2022-09-27T01:01:52;99104.34;;;9.66;100.00
70015;BME280;57358;51.094;6.760;2022-09-27T01:04:21;99088.41;;;9.45;100.00
70015;BME280;57358;51.094;6.760;2022-09-27T01:06:50;99111.69;;;9.61;100.00
70015;BME280;57358;51.094;6.760;2022-09-27T01:09:16;99114.31;;;9.61;100.00
70015;BME280;57358;51.094;6.760;2022-09-27T01:17:38;99116.41;;;9.56;100.00
70015;BME280;57358;51.094;6.760;2022-09-27T01:34:10;99123.94;;;9.61;100.00
70015;BME280;57358;51.094;6.760;2022-09-27T01:44:32;99089.94;;;9.36;100.00
70015;BME280;57358;51.094;6.760;2022-09-27T01:47:04;99107.91;;;9.41;100.00
70015;BME280;57358;51.094;6.760;2022-09-27T01:49:58;99125.97;;;9.57;100.00
70015;BME280;57358;51.094;6.760;2022-09-27T01:52:40;99113.22;;;9.52;100.00
70015;BME280;57358;51.094;6.760;2022-09-27T01:55:12;98921.03;;;8.23;100.00
70015;BME280;57358;51.094;6.760;2022-09-27T01:57:48;99105.84;;;9.33;100.00
70015;BME280;57358;51.094;6.760;2022-09-27T02:00:16;99136.25;;;9.47;100.00
70015;BME280;57358;51.094;6.760;2022-09-27T02:03:10;99125.31;;;9.42;100.00
70015;BME280;57358;51.094;6.760;2022-09-27T02:05:44;99081.66;;;9.06;100.00
70015;BME280;57358;51.094;6.760;2022-09-27T02:08:30;99117.72;;;9.26;100.00
70015;BME280;57358;51.094;6.760;2022-09-27T02:11:01;99132.03;;;9.33;100.00
70015;BME280;57358;51.094;6.760;2022-09-27T02:16:21;99138.09;;;9.34;100.00
70015;BME280;57358;51.094;6.760;2022-09-27T02:18:51;99135.47;;;9.34;100.00
70015;BME280;57358;51.094;6.760;2022-09-27T02:21:24;99139.88;;;9.33;100.00
70015;BME280;57358;51.094;6.760;2022-09-27T02:23:58;99084.50;;;9.03;100.00
70015;BME280;57358;51.094;6.760;2022-09-27T02:26:37;99120.78;;;9.20;100.00
70015;BME280;57358;51.094;6.760;2022-09-27T02:29:09;99138.53;;;9.28;100.00
70015;BME280;57358;51.094;6.760;2022-09-27T02:31:36;99144.81;;;9.25;100.00
70015;BME280;57358;51.094;6.760;2022-09-27T02:34:12;99127.50;;;9.11;100.00
70015;BME280;57358;51.094;6.760;2022-09-27T02:36:40;99040.16;;;8.64;100.00
70015;BME280;57358;51.094;6.760;2022-09-27T02:39:07;99086.59;;;8.97;100.00
70015;BME280;57358;51.094;6.760;2022-09-27T02:41:34;99148.69;;;9.32;100.00
70015;BME280;57358;51.094;6.760;2022-09-27T02:44:04;99148.28;;;9.26;100.00
70015;BME280;57358;51.094;6.760;2022-09-27T02:52:09;99164.03;;;9.13;100.00
70015;BME280;57358;51.094;6.760;2022-09-27T02:55:06;99160.34;;;9.15;100.00
70015;BME280;57358;51.094;6.760;2022-09-27T03:00:24;99143.53;;;9.07;100.00
70015;BME280;57358;51.094;6.760;2022-09-27T03:05:29;99180.84;;;9.22;100.00
70015;BME280;57358;51.094;6.760;2022-09-27T03:07:57;99093.91;;;8.68;100.00
70015;BME280;57358;51.094;6.760;2022-09-27T03:10:26;99174.34;;;9.27;100.00
70015;BME280;57358;51.094;6.760;2022-09-27T03:12:54;99121.88;;;8.92;100.00
70015;BME280;57358;51.094;6.760;2022-09-27T03:15:21;99172.91;;;9.23;100.00
70015;BME280;57358;51.094;6.760;2022-09-27T03:17:48;99105.59;;;8.75;100.00
70015;BME280;57358;51.094;6.760;2022-09-27T03:20:14;99173.97;;;9.08;100.00
70015;BME280;57358;51.094;6.760;2022-09-27T03:22:41;99113.56;;;8.61;100.00
70015;BME280;57358;51.094;6.760;2022-09-27T03:25:07;99182.38;;;8.87;100.00
70015;BME280;57358;51.094;6.760;2022-09-27T03:27:34;99097.78;;;8.24;100.00
70015;BME280;57358;51.094;6.760;2022-09-27T03:30:01;99184.81;;;8.65;100.00
70015;BME280;57358;51.094;6.760;2022-09-27T03:32:27;99181.78;;;8.58;100.00
70015;BME280;57358;51.094;6.760;2022-09-27T03:34:53;99190.56;;;8.57;100.00
70015;BME280;57358;51.094;6.760;2022-09-27T03:37:21;99141.38;;;8.24;100.00
70015;BME280;57358;51.094;6.760;2022-09-27T03:39:47;99135.63;;;8.18;100.00
70015;BME280;57358;51.094;6.760;2022-09-27T03:42:14;99165.44;;;8.29;100.00
70015;BME280;57358;51.094;6.760;2022-09-27T03:44:40;99180.84;;;8.46;100.00
70015;BME280;57358;51.094;6.760;2022-09-27T03:47:06;99126.09;;;8.05;100.00
70015;BME280;57358;51.094;6.760;2022-09-27T03:49:33;99186.91;;;8.47;100.00
70015;BME280;57358;51.094;6.760;2022-09-27T03:51:59;99185.22;;;8.46;100.00
70015;BME280;57358;51.094;6.760;2022-09-27T03:54:26;99171.47;;;8.29;100.00
70015;BME280;57358;51.094;6.760;2022-09-27T03:56:52;99180.28;;;8.28;100.00
70015;BME280;57358;51.094;6.760;2022-09-27T03:59:18;99190.72;;;8.28;100.00
70015;BME280;57358;51.094;6.760;2022-09-27T04:01:45;99164.56;;;8.03;100.00
70015;BME280;57358;51.094;6.760;2022-09-27T04:04:11;99139.34;;;7.89;100.00
70015;BME280;57358;51.094;6.760;2022-09-27T04:06:38;99055.97;;;7.33;100.00
70015;BME280;57358;51.094;6.760;2022-09-27T04:09:04;99120.34;;;7.59;100.00
70015;BME280;57358;51.094;6.760;2022-09-27T04:11:30;99173.94;;;7.92;100.00
70015;BME280;57358;51.094;6.760;2022-09-27T04:13:57;99151.53;;;7.75;100.00
70015;BME280;57358;51.094;6.760;2022-09-27T04:16:24;99156.66;;;7.77;100.00
70015;BME280;57358;51.094;6.760;2022-09-27T04:18:50;99132.06;;;7.54;100.00
70015;BME280;57358;51.094;6.760;2022-09-27T04:21:17;99170.34;;;7.81;100.00
70015;BME280;57358;51.094;6.760;2022-09-27T04:23:45;99126.09;;;7.52;100.00
70015;BME280;57358;51.094;6.760;2022-09-27T04:26:12;99184.78;;;7.86;100.00
70015;BME280;57358;51.094;6.760;2022-09-27T04:28:39;99136.06;;;7.45;100.00
70015;BME280;57358;51.094;6.760;2022-09-27T04:31:05;99205.69;;;7.86;100.00
70015;BME280;57358;51.094;6.760;2022-09-27T04:33:32;99125.69;;;7.31;100.00
70015;BME280;57358;51.094;6.760;2022-09-27T04:35:58;99176.56;;;7.65;100.00
70015;BME280;57358;51.094;6.760;2022-09-27T04:38:43;99175.72;;;7.65;100.00
70015;BME280;57358;51.094;6.760;2022-09-27T04:41:09;99205.97;;;7.82;100.00
70015;BME280;57358;51.094;6.760;2022-09-27T04:43:36;99195.19;;;7.73;100.00
70015;BME280;57358;51.094;6.760;2022-09-27T04:46:02;99171.81;;;7.57;100.00
70015;BME280;57358;51.094;6.760;2022-09-27T04:48:29;99196.53;;;7.66;100.00
70015;BME280;57358;51.094;6.760;2022-09-27T04:50:59;99215.97;;;7.75;100.00
70015;BME280;57358;51.094;6.760;2022-09-27T04:53:28;99216.63;;;7.78;100.00
70015;BME280;57358;51.094;6.760;2022-09-27T04:55:58;99158.38;;;7.36;100.00
70015;BME280;57358;51.094;6.760;2022-09-27T04:58:24;99199.56;;;7.73;100.00
70015;BME280;57358;51.094;6.760;2022-09-27T05:00:51;99123.63;;;7.36;100.00
70015;BME280;57358;51.094;6.760;2022-09-27T05:03:17;99221.47;;;7.97;100.00
70015;BME280;57358;51.094;6.760;2022-09-27T05:05:44;99159.72;;;7.56;100.00
70015;BME280;57358;51.094;6.760;2022-09-27T05:08:11;99177.28;;;7.67;100.00
70015;BME280;57358;51.094;6.760;2022-09-27T05:10:37;99198.78;;;7.85;100.00
70015;BME280;57358;51.094;6.760;2022-09-27T05:13:03;99200.75;;;7.82;100.00
70015;BME280;57358;51.094;6.760;2022-09-27T05:15:30;99104.78;;;7.18;100.00
70015;BME280;57358;51.094;6.760;2022-09-27T05:17:56;99238.69;;;7.87;100.00
70015;BME280;57358;51.094;6.760;2022-09-27T05:20:24;99061.34;;;6.75;100.00
70015;BME280;57358;51.094;6.760;2022-09-27T05:22:51;99239.19;;;7.79;100.00
70015;BME280;57358;51.094;6.760;2022-09-27T05:25:18;99241.16;;;7.76;100.00
70015;BME280;57358;51.094;6.760;2022-09-27T05:27:44;99215.69;;;7.52;100.00
70015;BME280;57358;51.094;6.760;2022-09-27T05:30:11;99228.72;;;7.52;100.00
70015;BME280;57358;51.094;6.760;2022-09-27T05:32:45;99253.34;;;7.90;100.00
70015;BME280;57358;51.094;6.760;2022-09-27T05:35:16;99266.00;;;7.96;100.00
70015;BME280;57358;51.094;6.760;2022-09-27T05:37:53;99245.88;;;7.84;100.00
70015;BME280;57358;51.094;6.760;2022-09-27T05:40:20;99265.13;;;8.10;100.00
70015;BME280;57358;51.094;6.760;2022-09-27T05:43:07;99223.09;;;7.86;100.00
70015;BME280;57358;51.094;6.760;2022-09-27T05:45:33;99207.22;;;7.76;100.00
70015;BME280;57358;51.094;6.760;2022-09-27T05:48:00;99273.38;;;8.16;100.00
70015;BME280;57358;51.094;6.760;2022-09-27T05:50:26;99236.41;;;7.95;100.00
70015;BME280;57358;51.094;6.760;2022-09-27T05:52:53;99268.16;;;8.16;100.00
70015;BME280;57358;51.094;6.760;2022-09-27T05:55:20;99275.78;;;8.19;100.00
70015;BME280;57358;51.094;6.760;2022-09-27T05:57:54;99277.25;;;8.24;100.00
70015;BME280;57358;51.094;6.760;2022-09-27T06:00:23;99233.41;;;8.02;100.00
70015;BME280;57358;51.094;6.760;2022-09-27T06:02:59;99217.78;;;7.87;100.00
70015;BME280;57358;51.094;6.760;2022-09-27T06:05:28;99210.50;;;7.92;100.00
70015;BME280;57358;51.094;6.760;2022-09-27T06:08:00;99201.53;;;7.96;100.00
70015;BME280;57358;51.094;6.760;2022-09-27T06:10:27;99265.91;;;8.37;100.00
70015;BME280;57358;51.094;6.760;2022-09-27T06:13:10;99264.88;;;8.40;100.00
70015;BME280;57358;51.094;6.760;2022-09-27T06:15:39;99270.88;;;8.42;100.00
70015;BME280;57358;51.094;6.760;2022-09-27T06:18:14;99205.84;;;8.10;100.00
70015;BME280;57358;51.094;6.760;2022-09-27T06:20:43;99255.94;;;8.44;100.00
70015;BME280;57358;51.094;6.760;2022-09-27T06:23:14;99275.06;;;8.57;100.00
70015;BME280;57358;51.094;6.760;2022-09-27T06:25:41;99208.47;;;8.23;100.00
70015;BME280;57358;51.094;6.760;2022-09-27T06:28:08;99238.88;;;8.51;100.00
70015;BME280;57358;51.094;6.760;2022-09-27T06:30:40;99273.84;;;8.76;100.00
70015;BME280;57358;51.094;6.760;2022-09-27T06:33:09;99262.53;;;8.75;100.00
70015;BME280;57358;51.094;6.760;2022-09-27T06:35:37;99207.09;;;8.45;100.00
70015;BME280;57358;51.094;6.760;2022-09-27T06:38:07;99274.59;;;8.91;100.00
70015;BME280;57358;51.094;6.760;2022-09-27T06:40:35;99204.88;;;8.51;100.00
70015;BME280;57358;51.094;6.760;2022-09-27T06:43:07;99165.63;;;8.26;100.00
70015;BME280;57358;51.094;6.760;2022-09-27T06:45:35;99276.78;;;8.97;100.00
70015;BME280;57358;51.094;6.760;2022-09-27T06:48:03;99276.47;;;8.89;100.00
70015;BME280;57358;51.094;6.760;2022-09-27T06:50:32;99232.41;;;8.57;100.00
70015;BME280;57358;51.094;6.760;2022-09-27T06:52:59;99293.22;;;8.99;100.00
70015;BME280;57358;51.094;6.760;2022-09-27T06:55:25;99243.41;;;8.62;100.00
70015;BME280;57358;51.094;6.760;2022-09-27T06:57:59;99305.25;;;9.02;100.00
70015;BME280;57358;51.094;6.760;2022-09-27T07:00:48;99290.47;;;8.88;100.00
70015;BME280;57358;51.094;6.760;2022-09-27T07:03:15;99314.47;;;8.94;100.00
70015;BME280;57358;51.094;6.760;2022-09-27T07:05:42;99289.84;;;8.71;100.00
70015;BME280;57358;51.094;6.760;2022-09-27T07:08:09;99310.16;;;8.93;100.00
70015;BME280;57358;51.094;6.760;2022-09-27T07:10:38;99236.69;;;8.45;100.00
70015;BME280;57358;51.094;6.760;2022-09-27T07:13:06;99204.63;;;8.16;100.00
70015;BME280;57358;51.094;6.760;2022-09-27T07:15:34;99294.25;;;8.84;100.00
70015;BME280;57358;51.094;6.760;2022-09-27T07:18:04;99291.84;;;8.81;100.00
70015;BME280;57358;51.094;6.760;2022-09-27T07:20:32;99272.81;;;8.78;100.00
70015;BME280;57358;51.094;6.760;2022-09-27T07:23:00;99260.56;;;8.79;100.00
70015;BME280;57358;51.094;6.760;2022-09-27T07:25:27;99326.81;;;9.18;100.00
70015;BME280;57358;51.094;6.760;2022-09-27T07:27:53;99310.06;;;8.95;100.00
70015;BME280;57358;51.094;6.760;2022-09-27T07:30:20;99252.91;;;8.63;100.00
70015;BME280;57358;51.094;6.760;2022-09-27T07:32:46;99249.97;;;8.55;100.00
70015;BME280;57358;51.094;6.760;2022-09-27T07:35:13;99272.16;;;8.62;100.00
70015;BME280;57358;51.094;6.760;2022-09-27T07:37:40;99311.94;;;8.93;100.00
70015;BME280;57358;51.094;6.760;2022-09-27T07:40:08;99335.81;;;9.01;100.00
70015;BME280;57358;51.094;6.760;2022-09-27T07:42:36;99301.34;;;8.69;100.00
70015;BME280;57358;51.094;6.760;2022-09-27T07:45:07;99276.53;;;8.49;100.00
70015;BME280;57358;51.094;6.760;2022-09-27T07:47:34;99297.03;;;8.68;100.00
70015;BME280;57358;51.094;6.760;2022-09-27T07:50:07;99345.66;;;9.10;100.00
70015;BME280;57358;51.094;6.760;2022-09-27T07:52:43;99324.50;;;9.01;100.00
70015;BME280;57358;51.094;6.760;2022-09-27T07:55:13;99302.31;;;8.93;100.00
70015;BME280;57358;51.094;6.760;2022-09-27T07:57:40;99275.19;;;8.82;100.00
70015;BME280;57358;51.094;6.760;2022-09-27T08:00:10;99351.00;;;9.47;100.00
70015;BME280;57358;51.094;6.760;2022-09-27T08:02:39;99367.22;;;9.65;100.00
70015;BME280;57358;51.094;6.760;2022-09-27T08:05:06;99359.44;;;9.76;100.00
70015;BME280;57358;51.094;6.760;2022-09-27T08:07:33;99309.19;;;9.58;100.00
70015;BME280;57358;51.094;6.760;2022-09-27T08:09:59;99363.75;;;10.14;100.00
70015;BME280;57358;51.094;6.760;2022-09-27T08:12:25;99300.31;;;9.85;100.00
70015;BME280;57358;51.094;6.760;2022-09-27T08:14:52;99368.75;;;10.30;100.00
70015;BME280;57358;51.094;6.760;2022-09-27T08:17:18;99379.84;;;10.34;100.00
70015;BME280;57358;51.094;6.760;2022-09-27T08:19:45;99278.34;;;9.75;100.00
70015;BME280;57358;51.094;6.760;2022-09-27T08:22:13;99376.03;;;10.38;100.00
70015;BME280;57358;51.094;6.760;2022-09-27T08:24:40;99279.13;;;9.64;100.00
70015;BME280;57358;51.094;6.760;2022-09-27T08:27:06;99380.91;;;10.31;100.00
70015;BME280;57358;51.094;6.760;2022-09-27T08:29:37;99315.25;;;9.96;100.00
70015;BME280;57358;51.094;6.760;2022-09-27T08:32:10;99386.25;;;10.30;100.00
70015;BME280;57358;51.094;6.760;2022-09-27T08:34:37;99385.31;;;10.31;100.00
70015;BME280;57358;51.094;6.760;2022-09-27T08:37:04;99389.91;;;10.27;100.00
70015;BME280;57358;51.094;6.760;2022-09-27T08:39:30;99368.66;;;10.19;100.00
70015;BME280;57358;51.094;6.760;2022-09-27T08:44:59;99381.75;;;10.56;100.00
70015;BME280;57358;51.094;6.760;2022-09-27T08:47:43;99229.91;;;9.81;100.00
70015;BME280;57358;51.094;6.760;2022-09-27T08:50:24;99397.69;;;10.77;100.00
70015;BME280;57358;51.094;6.760;2022-09-27T08:55:34;99395.22;;;11.33;100.00
70015;BME280;57358;51.094;6.760;2022-09-27T08:58:11;99327.75;;;11.11;100.00
70015;BME280;57358;51.094;6.760;2022-09-27T09:00:41;99319.66;;;11.26;100.00
70015;BME280;57358;51.094;6.760;2022-09-27T09:03:15;99308.19;;;11.15;100.00
70015;BME280;57358;51.094;6.760;2022-09-27T09:11:17;99353.94;;;11.47;100.00
70015;BME280;57358;51.094;6.760;2022-09-27T09:25:11;99382.00;;;11.80;100.00
70015;BME280;57358;51.094;6.760;2022-09-27T09:30:24;99359.41;;;11.77;100.00
70015;BME280;57358;51.094;6.760;2022-09-27T09:38:38;99393.75;;;12.74;100.00
70015;BME280;57358;51.094;6.760;2022-09-27T09:41:28;99386.84;;;12.94;100.00
70015;BME280;57358;51.094;6.760;2022-09-27T09:44:03;99383.44;;;12.83;100.00
70015;BME280;57358;51.094;6.760;2022-09-27T09:46:38;99380.16;;;12.69;99.35
70015;BME280;57358;51.094;6.760;2022-09-27T09:51:44;99383.00;;;12.45;100.00
70015;BME280;57358;51.094;6.760;2022-09-27T09:54:18;99339.34;;;12.43;100.00
70015;BME280;57358;51.094;6.760;2022-09-27T09:56:50;99319.16;;;12.64;100.00
70015;BME280;57358;51.094;6.760;2022-09-27T09:59:34;99382.75;;;13.02;100.00
70015;BME280;57358;51.094;6.760;2022-09-27T10:04:56;99376.03;;;12.76;100.00
70015;BME280;57358;51.094;6.760;2022-09-27T10:07:23;99342.72;;;12.33;100.00
70015;BME280;57358;51.094;6.760;2022-09-27T10:09:53;99358.53;;;12.22;100.00
70015;BME280;57358;51.094;6.760;2022-09-27T10:12:21;99339.00;;;11.92;100.00
70015;BME280;57358;51.094;6.760;2022-09-27T10:14:48;99382.38;;;12.09;100.00
70015;BME280;57358;51.094;6.760;2022-09-27T10:17:20;99368.84;;;12.03;100.00
70015;BME280;57358;51.094;6.760;2022-09-27T10:19:48;99379.25;;;12.04;100.00
70015;BME280;57358;51.094;6.760;2022-09-27T10:22:39;99371.25;;;12.17;100.00
70015;BME280;57358;51.094;6.760;2022-09-27T10:25:08;99301.94;;;11.84;100.00
70015;BME280;57358;51.094;6.760;2022-09-27T10:27:49;99371.41;;;12.36;100.00
70015;BME280;57358;51.094;6.760;2022-09-27T10:30:34;99377.34;;;12.50;100.00
70015;BME280;57358;51.094;6.760;2022-09-27T10:33:06;99379.88;;;12.51;100.00
70015;BME280;57358;51.094;6.760;2022-09-27T10:35:44;99359.09;;;12.37;100.00
70015;BME280;57358;51.094;6.760;2022-09-27T10:40:42;99366.34;;;12.45;100.00
70015;BME280;57358;51.094;6.760;2022-09-27T10:48:41;99281.63;;;11.97;100.00
70015;BME280;57358;51.094;6.760;2022-09-27T10:51:25;99304.59;;;11.95;100.00
70015;BME280;57358;51.094;6.760;2022-09-27T10:53:54;99370.69;;;12.34;100.00
70015;BME280;57358;51.094;6.760;2022-09-27T10:56:31;99375.41;;;12.63;100.00
70015;BME280;57358;51.094;6.760;2022-09-27T10:58:58;99376.81;;;12.67;100.00
70015;BME280;57358;51.094;6.760;2022-09-27T11:01:26;99333.94;;;12.44;100.00
70015;BME280;57358;51.094;6.760;2022-09-27T11:04:03;99376.41;;;12.83;100.00
70015;BME280;57358;51.094;6.760;2022-09-27T11:06:31;99335.53;;;12.68;100.00
70015;BME280;57358;51.094;6.760;2022-09-27T11:09:18;99334.44;;;12.49;100.00
70015;BME280;57358;51.094;6.760;2022-09-27T11:11:45;99363.34;;;12.82;100.00
70015;BME280;57358;51.094;6.760;2022-09-27T11:14:20;99316.31;;;12.35;100.00
70015;BME280;57358;51.094;6.760;2022-09-27T11:17:21;99373.41;;;12.76;100.00
70015;BME280;57358;51.094;6.760;2022-09-27T11:25:37;99370.28;;;12.83;100.00
70015;BME280;57358;51.094;6.760;2022-09-27T11:28:45;99369.47;;;13.03;100.00
70015;BME280;57358;51.094;6.760;2022-09-27T11:42:38;99338.06;;;14.13;98.26
70015;BME280;57358;51.094;6.760;2022-09-27T11:48:35;99360.94;;;14.13;90.77
70015;BME280;57358;51.094;6.760;2022-09-27T12:00:29;99352.41;;;13.80;90.14
70015;BME280;57358;51.094;6.760;2022-09-27T12:03:13;99348.19;;;13.68;87.49
70015;BME280;57358;51.094;6.760;2022-09-27T12:08:52;99303.66;;;13.74;87.14
70015;BME280;57358;51.094;6.760;2022-09-27T12:11:30;99343.16;;;14.15;86.57
70015;BME280;57358;51.094;6.760;2022-09-27T12:16:33;99101.72;;;12.42;86.97
70015;BME280;57358;51.094;6.760;2022-09-27T12:19:02;99279.41;;;13.09;89.18
70015;BME280;57358;51.094;6.760;2022-09-27T12:21:30;99336.94;;;13.14;94.16
70015;BME280;57358;51.094;6.760;2022-09-27T12:23:59;99264.81;;;12.21;98.11
70015;BME280;57358;51.094;6.760;2022-09-27T12:26:30;99363.91;;;12.64;100.00
70015;BME280;57358;51.094;6.760;2022-09-27T12:29:08;99331.78;;;12.17;100.00
70015;BME280;57358;51.094;6.760;2022-09-27T12:34:46;99377.81;;;12.00;100.00
70015;BME280;57358;51.094;6.760;2022-09-27T12:37:20;99375.94;;;11.91;100.00
70015;BME280;57358;51.094;6.760;2022-09-27T12:39:54;99314.16;;;11.40;100.00
70015;BME280;57358;51.094;6.760;2022-09-27T12:44:51;99196.56;;;10.53;100.00
70015;BME280;57358;51.094;6.760;2022-09-27T12:47:43;99384.25;;;11.62;100.00
70015;BME280;57358;51.094;6.760;2022-09-27T12:52:49;99355.94;;;11.32;100.00
70015;BME280;57358;51.094;6.760;2022-09-27T12:55:46;99343.13;;;10.93;100.00
70015;BME280;57358;51.094;6.760;2022-09-27T13:02:01;99309.81;;;10.47;100.00
70015;BME280;57358;51.094;6.760;2022-09-27T13:06:27;99405.59;;;11.24;100.00
70015;BME280;57358;51.094;6.760;2022-09-27T13:09:22;99322.47;;;11.00;100.00
70015;BME280;57358;51.094;6.760;2022-09-27T13:12:10;99396.34;;;11.76;100.00
70015;BME280;57358;51.094;6.760;2022-09-27T13:15:04;99403.06;;;11.91;100.00
70015;BME280;57358;51.094;6.760;2022-09-27T13:25:53;99392.00;;;12.31;100.00
70015;BME280;57358;51.094;6.760;2022-09-27T13:30:59;99308.06;;;11.73;100.00
70015;BME280;57358;51.094;6.760;2022-09-27T13:44:28;99372.63;;;12.65;100.00
70015;BME280;57358;51.094;6.760;2022-09-27T13:49:38;99146.22;;;11.27;100.00
70015;BME280;57358;51.094;6.760;2022-09-27T13:52:27;99234.94;;;11.90;100.00
70015;BME280;57358;51.094;6.760;2022-09-27T13:54:56;99374.97;;;12.79;100.00
70015;BME280;57358;51.094;6.760;2022-09-27T13:57:48;99363.16;;;12.73;99.79
70015;BME280;57358;51.094;6.760;2022-09-27T14:00:24;99383.81;;;12.78;99.62
70015;BME280;57358;51.094;6.760;2022-09-27T14:03:37;99325.69;;;12.49;99.83
70015;BME280;57358;51.094;6.760;2022-09-27T14:06:19;99383.72;;;12.47;97.65
70015;BME280;57358;51.094;6.760;2022-09-27T14:08:53;99385.44;;;12.69;98.63
70015;BME280;57358;51.094;6.760;2022-09-27T14:11:25;99193.72;;;11.24;97.54
70015;BME280;57358;51.094;6.760;2022-09-27T14:13:53;99375.31;;;12.53;97.92
70015;BME280;57358;51.094;6.760;2022-09-27T14:16:21;99355.38;;;12.40;99.27
70015;BME280;57358;51.094;6.760;2022-09-27T14:18:50;99311.59;;;12.06;100.00
70015;BME280;57358;51.094;6.760;2022-09-27T14:27:01;99283.34;;;11.65;98.89
70015;BME280;57358;51.094;6.760;2022-09-27T14:29:31;99383.91;;;12.23;100.00
70015;BME280;57358;51.094;6.760;2022-09-27T14:32:08;99383.53;;;12.16;99.80
70015;BME280;57358;51.094;6.760;2022-09-27T14:34:35;99340.53;;;11.84;100.00
70015;BME280;57358;51.094;6.760;2022-09-27T14:37:02;99388.56;;;12.20;100.00
70015;BME280;57358;51.094;6.760;2022-09-27T14:39:59;99348.69;;;11.92;100.00
70015;BME280;57358;51.094;6.760;2022-09-27T14:42:32;99337.19;;;11.82;100.00
70015;BME280;57358;51.094;6.760;2022-09-27T14:45:22;99381.66;;;11.96;100.00
70015;BME280;57358;51.094;6.760;2022-09-27T14:47:50;99405.09;;;11.99;99.62
70015;BME280;57358;51.094;6.760;2022-09-27T14:50:28;99395.50;;;11.98;100.00
70015;BME280;57358;51.094;6.760;2022-09-27T14:52:56;99403.28;;;12.00;100.00
70015;BME280;57358;51.094;6.760;2022-09-27T14:55:29;99419.63;;;11.81;100.00
70015;BME280;57358;51.094;6.760;2022-09-27T14:57:58;99404.31;;;11.74;100.00
70015;BME280;57358;51.094;6.760;2022-09-27T15:00:28;99411.72;;;11.81;100.00
70015;BME280;57358;51.094;6.760;2022-09-27T15:02:59;99424.94;;;12.03;100.00
70015;BME280;57358;51.094;6.760;2022-09-27T15:05:31;99420.50;;;11.92;100.00
70015;BME280;57358;51.094;6.760;2022-09-27T15:08:00;99387.72;;;11.51;100.00
70015;BME280;57358;51.094;6.760;2022-09-27T15:10:29;99414.28;;;11.93;100.00
70015;BME280;57358;51.094;6.760;2022-09-27T15:12:57;99386.88;;;11.62;100.00
70015;BME280;57358;51.094;6.760;2022-09-27T15:15:29;99419.03;;;11.88;100.00
70015;BME280;57358;51.094;6.760;2022-09-27T15:17:59;99328.97;;;11.30;100.00
70015;BME280;57358;51.094;6.760;2022-09-27T15:20:31;99405.88;;;11.66;100.00
70015;BME280;57358;51.094;6.760;2022-09-27T15:23:02;99413.88;;;11.64;100.00
70015;BME280;57358;51.094;6.760;2022-09-27T15:25:35;99424.28;;;11.66;100.00
70015;BME280;57358;51.094;6.760;2022-09-27T15:28:05;99432.75;;;11.58;100.00
70015;BME280;57358;51.094;6.760;2022-09-27T15:30:40;99345.28;;;11.00;100.00
70015;BME280;57358;51.094;6.760;2022-09-27T15:33:19;99411.47;;;11.27;100.00
70015;BME280;57358;51.094;6.760;2022-09-27T15:35:51;99334.56;;;10.67;100.00
70015;BME280;57358;51.094;6.760;2022-09-27T15:38:29;99352.59;;;10.72;100.00
70015;BME280;57358;51.094;6.760;2022-09-27T15:41:10;99420.22;;;11.04;100.00
70015;BME280;57358;51.094;6.760;2022-09-27T15:43:44;99193.94;;;9.58;100.00
70015;BME280;57358;51.094;6.760;2022-09-27T15:48:40;99410.69;;;11.03;100.00
70015;BME280;57358;51.094;6.760;2022-09-27T15:51:46;99418.41;;;11.04;100.00
70015;BME280;57358;51.094;6.760;2022-09-27T15:54:12;99417.84;;;11.12;100.00
70015;BME280;57358;51.094;6.760;2022-09-27T15:56:42;99329.25;;;10.45;100.00
70015;BME280;57358;51.094;6.760;2022-09-27T15:59:19;99348.03;;;10.63;100.00
70015;BME280;57358;51.094;6.760;2022-09-27T16:01:47;99408.47;;;10.85;100.00
70015;BME280;57358;51.094;6.760;2022-09-27T16:04:14;99413.97;;;10.93;100.00
70015;BME280;57358;51.094;6.760;2022-09-27T16:06:40;99427.91;;;10.83;100.00
70015;BME280;57358;51.094;6.760;2022-09-27T16:09:15;99416.06;;;10.77;100.00